KAL35 RKSI-KATL
Flight info
| Callsign | KAL35 |
|---|---|
| Flight time | N/A |
| Altitude | 33000 |
| Route | EGOBA2C EGOBA Y697 LANAT Y51 SAMON Y142 GTC Y512 ADNAP R591 ADGOR DCT AGEDI DCT AKISU DCT ASPIN DCT AAMYY DCT SYA DCT AMOND DCT ALDOZ DCT ALUFF DCT SPY DCT AKN DCT MDO DCT YAK DCT 59N130W DCT YXJ DCT YEX DCT 52N110W 50N104W DCT MOT DCT DSM Q19 STL DCT TINGS DCT HITMN DCT NEWBB DCT IHAVE DCT MTHEW CHPPR1 |
| Aircraft | A388/J-SADE2E3FGHIJ3J4J5M1RWXY/LB1D1 |
Departure
| Time | 2026-05-05 02:33 |
|---|---|
| Airport | Incheon International Airport (RKSI) |
Arrival
| Time | N/A |
|---|---|
| Airport | Hartsfield Jackson Atlanta International Airport (KATL) |
| Time | Latitude | Longitude | Altitude | Speed | Heading |
|---|---|---|---|---|---|
| 2026-05-05 01:57 | 37.46863 | 126.43994 | 37 ft | 0 kts | 220° |
| 2026-05-05 02:18 | 37.46867 | 126.43999 | 36 ft | 4 kts | 220° |
| 2026-05-05 02:18 | 37.46888 | 126.44021 | 37 ft | 4 kts | 220° |
| 2026-05-05 02:18 | 37.46909 | 126.44043 | 37 ft | 4 kts | 220° |
| 2026-05-05 02:19 | 37.46924 | 126.44061 | 36 ft | 4 kts | 245° |
| 2026-05-05 02:19 | 37.46928 | 126.44078 | 35 ft | 4 kts | 290° |
| 2026-05-05 02:19 | 37.46908 | 126.44112 | 33 ft | 4 kts | 314° |
| 2026-05-05 02:19 | 37.46890 | 126.44137 | 35 ft | 4 kts | 314° |
| 2026-05-05 02:20 | 37.46874 | 126.44158 | 35 ft | 1 kts | 314° |
| 2026-05-05 02:20 | 37.46874 | 126.44159 | 35 ft | 0 kts | 313° |
| 2026-05-05 02:24 | 37.46883 | 126.44145 | 37 ft | 6 kts | 313° |
| 2026-05-05 02:24 | 37.46919 | 126.44102 | 37 ft | 8 kts | 331° |
| 2026-05-05 02:25 | 37.46975 | 126.44097 | 37 ft | 10 kts | 13° |
| 2026-05-05 02:25 | 37.47014 | 126.44149 | 37 ft | 10 kts | 58° |
| 2026-05-05 02:25 | 37.47062 | 126.44188 | 37 ft | 9 kts | 354° |
| 2026-05-05 02:25 | 37.47131 | 126.44145 | 37 ft | 13 kts | 326° |
| 2026-05-05 02:26 | 37.47220 | 126.44065 | 37 ft | 18 kts | 324° |
| 2026-05-05 02:26 | 37.47324 | 126.43971 | 37 ft | 19 kts | 326° |
| 2026-05-05 02:26 | 37.47434 | 126.43876 | 35 ft | 20 kts | 324° |
| 2026-05-05 02:26 | 37.47551 | 126.43773 | 37 ft | 21 kts | 324° |
| 2026-05-05 02:27 | 37.47672 | 126.43664 | 37 ft | 22 kts | 324° |
| 2026-05-05 02:27 | 37.47798 | 126.43553 | 37 ft | 22 kts | 324° |
| 2026-05-05 02:27 | 37.47917 | 126.43447 | 37 ft | 15 kts | 324° |
| 2026-05-05 02:27 | 37.47969 | 126.43401 | 37 ft | 9 kts | 335° |
| 2026-05-05 02:28 | 37.48027 | 126.43408 | 37 ft | 9 kts | 41° |
| 2026-05-05 02:28 | 37.48061 | 126.43467 | 37 ft | 3 kts | 58° |
| 2026-05-05 02:28 | 37.48074 | 126.43495 | 37 ft | 0 kts | 57° |
| 2026-05-05 02:28 | 37.48076 | 126.43497 | 37 ft | 0 kts | 57° |
| 2026-05-05 02:30 | 37.48077 | 126.43500 | 37 ft | 3 kts | 57° |
| 2026-05-05 02:30 | 37.48108 | 126.43557 | 37 ft | 10 kts | 55° |
| 2026-05-05 02:30 | 37.48140 | 126.43614 | 37 ft | 3 kts | 54° |
| 2026-05-05 02:31 | 37.48150 | 126.43643 | 37 ft | 4 kts | 98° |
| 2026-05-05 02:31 | 37.48135 | 126.43670 | 37 ft | 5 kts | 143° |
| 2026-05-05 02:31 | 37.48131 | 126.43673 | 37 ft | 0 kts | 144° |
| 2026-05-05 02:32 | 37.48114 | 126.43689 | 37 ft | 10 kts | 144° |
| 2026-05-05 02:32 | 37.47882 | 126.43897 | 38 ft | 77 kts | 144° |
| 2026-05-05 02:32 | 37.47272 | 126.44440 | 37 ft | 136 kts | 144° |
| 2026-05-05 02:32 | 37.46394 | 126.45222 | 59 ft | 168 kts | 139° |
| 2026-05-05 02:33 | 37.45474 | 126.46128 | 471 ft | 168 kts | 134° |
| 2026-05-05 02:33 | 37.44629 | 126.47180 | 854 ft | 174 kts | 129° |
| 2026-05-05 02:33 | 37.43806 | 126.48354 | 1177 ft | 183 kts | 128° |
| 2026-05-05 02:33 | 37.42992 | 126.49626 | 1391 ft | 189 kts | 132° |
| 2026-05-05 02:34 | 37.42184 | 126.50936 | 1512 ft | 192 kts | 132° |
| 2026-05-05 02:34 | 37.41335 | 126.52270 | 1789 ft | 199 kts | 133° |
| 2026-05-05 02:34 | 37.40420 | 126.53662 | 2081 ft | 217 kts | 134° |
| 2026-05-05 02:34 | 37.39399 | 126.55188 | 2336 ft | 238 kts | 134° |
| 2026-05-05 02:35 | 37.38287 | 126.56844 | 2602 ft | 253 kts | 134° |
| 2026-05-05 02:35 | 37.37017 | 126.58358 | 2926 ft | 251 kts | 149° |
| 2026-05-05 02:35 | 37.35462 | 126.59315 | 3291 ft | 248 kts | 165° |
| 2026-05-05 02:35 | 37.33798 | 126.59985 | 3677 ft | 252 kts | 164° |
| 2026-05-05 02:36 | 37.32154 | 126.60685 | 4060 ft | 254 kts | 163° |
| 2026-05-05 02:36 | 37.30472 | 126.61417 | 4477 ft | 256 kts | 163° |
| 2026-05-05 02:36 | 37.28831 | 126.62335 | 4880 ft | 263 kts | 147° |
| 2026-05-05 02:36 | 37.27615 | 126.64084 | 5287 ft | 274 kts | 120° |
| 2026-05-05 02:37 | 37.27131 | 126.66420 | 5691 ft | 282 kts | 93° |
| 2026-05-05 02:37 | 37.27240 | 126.68888 | 6110 ft | 287 kts | 86° |
| 2026-05-05 02:37 | 37.27457 | 126.71402 | 6525 ft | 289 kts | 85° |
| 2026-05-05 02:37 | 37.27662 | 126.73889 | 6909 ft | 290 kts | 86° |
| 2026-05-05 02:38 | 37.27840 | 126.76431 | 7300 ft | 291 kts | 87° |
| 2026-05-05 02:38 | 37.27994 | 126.78972 | 7688 ft | 292 kts | 87° |
| 2026-05-05 02:38 | 37.28134 | 126.81513 | 8083 ft | 292 kts | 88° |
| 2026-05-05 02:38 | 37.28269 | 126.84068 | 8491 ft | 294 kts | 88° |
| 2026-05-05 02:39 | 37.28404 | 126.86628 | 8895 ft | 295 kts | 88° |
| 2026-05-05 02:39 | 37.28539 | 126.89184 | 9307 ft | 296 kts | 88° |
| 2026-05-05 02:39 | 37.28721 | 126.91774 | 9712 ft | 298 kts | 85° |
| 2026-05-05 02:39 | 37.28969 | 126.94367 | 10145 ft | 300 kts | 84° |
| 2026-05-05 02:40 | 37.29230 | 126.96992 | 10430 ft | 314 kts | 84° |
| 2026-05-05 02:40 | 37.29499 | 126.99787 | 10587 ft | 330 kts | 85° |
| 2026-05-05 02:40 | 37.29771 | 127.02725 | 10734 ft | 345 kts | 85° |
| 2026-05-05 02:40 | 37.30260 | 127.05716 | 11106 ft | 354 kts | 70° |
| 2026-05-05 02:41 | 37.31451 | 127.08429 | 11668 ft | 356 kts | 57° |
| 2026-05-05 02:41 | 37.32875 | 127.10980 | 12205 ft | 359 kts | 56° |
| 2026-05-05 02:41 | 37.34360 | 127.13544 | 12703 ft | 363 kts | 55° |
| 2026-05-05 02:41 | 37.35855 | 127.16080 | 13252 ft | 364 kts | 55° |
| 2026-05-05 02:42 | 37.37376 | 127.18650 | 13777 ft | 366 kts | 55° |
| 2026-05-05 02:42 | 37.38885 | 127.21200 | 14263 ft | 369 kts | 55° |
| 2026-05-05 02:42 | 37.40421 | 127.23799 | 14722 ft | 371 kts | 55° |
| 2026-05-05 02:42 | 37.41981 | 127.26444 | 15096 ft | 376 kts | 54° |
| 2026-05-05 02:43 | 37.43541 | 127.29089 | 15654 ft | 376 kts | 54° |
| 2026-05-05 02:43 | 37.45084 | 127.31702 | 16134 ft | 377 kts | 54° |
| 2026-05-05 02:43 | 37.46657 | 127.34376 | 16523 ft | 381 kts | 55° |
| 2026-05-05 02:43 | 37.48082 | 127.37194 | 16931 ft | 382 kts | 65° |
| 2026-05-05 02:44 | 37.49075 | 127.40297 | 17456 ft | 381 kts | 74° |
| 2026-05-05 02:44 | 37.49658 | 127.43552 | 17890 ft | 382 kts | 80° |
| 2026-05-05 02:44 | 37.50169 | 127.46852 | 18245 ft | 386 kts | 79° |
| 2026-05-05 02:44 | 37.50698 | 127.50153 | 18538 ft | 391 kts | 79° |
| 2026-05-05 02:45 | 37.51247 | 127.53548 | 18992 ft | 390 kts | 79° |
| 2026-05-05 02:45 | 37.51783 | 127.56879 | 19279 ft | 396 kts | 79° |
| 2026-05-05 02:45 | 37.52330 | 127.60296 | 19661 ft | 396 kts | 79° |
| 2026-05-05 02:45 | 37.52874 | 127.63703 | 20085 ft | 397 kts | 79° |
| 2026-05-05 02:46 | 37.53419 | 127.67135 | 20387 ft | 401 kts | 79° |
| 2026-05-05 02:46 | 37.53962 | 127.70554 | 20732 ft | 403 kts | 78° |
| 2026-05-05 02:46 | 37.54511 | 127.74019 | 21145 ft | 403 kts | 79° |
| 2026-05-05 02:46 | 37.55062 | 127.77497 | 21397 ft | 407 kts | 79° |
| 2026-05-05 02:47 | 37.55618 | 127.81019 | 21806 ft | 408 kts | 78° |
| 2026-05-05 02:47 | 37.56171 | 127.84534 | 22111 ft | 411 kts | 78° |
| 2026-05-05 02:47 | 37.56726 | 127.88059 | 22304 ft | 417 kts | 78° |
| 2026-05-05 02:47 | 37.57291 | 127.91656 | 22746 ft | 416 kts | 78° |
| 2026-05-05 02:48 | 37.57851 | 127.95233 | 23149 ft | 417 kts | 78° |
| 2026-05-05 02:48 | 37.58412 | 127.98822 | 23332 ft | 422 kts | 78° |
| 2026-05-05 02:48 | 37.58980 | 128.02463 | 23742 ft | 422 kts | 78° |
| 2026-05-05 02:48 | 37.59546 | 128.06098 | 24087 ft | 422 kts | 78° |
| 2026-05-05 02:49 | 37.60115 | 128.09762 | 24271 ft | 427 kts | 78° |
| 2026-05-05 02:49 | 37.60686 | 128.13447 | 24643 ft | 426 kts | 78° |
| 2026-05-05 02:49 | 37.61253 | 128.17112 | 24976 ft | 427 kts | 78° |
| 2026-05-05 02:49 | 37.61826 | 128.20829 | 25117 ft | 433 kts | 78° |
| 2026-05-05 02:50 | 37.62402 | 128.24565 | 25446 ft | 434 kts | 78° |
| 2026-05-05 02:50 | 37.62978 | 128.28315 | 25724 ft | 436 kts | 78° |
| 2026-05-05 02:50 | 37.63551 | 128.32051 | 25958 ft | 440 kts | 78° |
| 2026-05-05 02:50 | 37.64132 | 128.35850 | 26459 ft | 437 kts | 78° |
| 2026-05-05 02:51 | 37.64711 | 128.39643 | 26680 ft | 442 kts | 78° |
| 2026-05-05 02:51 | 37.65287 | 128.43424 | 26989 ft | 444 kts | 78° |
| 2026-05-05 02:51 | 37.65865 | 128.47239 | 27444 ft | 443 kts | 78° |
| 2026-05-05 02:51 | 37.66451 | 128.51105 | 27663 ft | 449 kts | 78° |
| 2026-05-05 02:52 | 37.67039 | 128.54986 | 28004 ft | 450 kts | 78° |
| 2026-05-05 02:52 | 37.67626 | 128.58883 | 28334 ft | 453 kts | 77° |
| 2026-05-05 02:52 | 37.68217 | 128.62820 | 28530 ft | 458 kts | 78° |
| 2026-05-05 02:52 | 37.68800 | 128.66728 | 29001 ft | 457 kts | 78° |
| 2026-05-05 02:53 | 37.69311 | 128.70695 | 29305 ft | 460 kts | 84° |
| 2026-05-05 02:53 | 37.69240 | 128.74781 | 29598 ft | 464 kts | 98° |
| 2026-05-05 02:53 | 37.68486 | 128.78737 | 30064 ft | 465 kts | 110° |
| 2026-05-05 02:53 | 37.67121 | 128.82423 | 30265 ft | 469 kts | 121° |
| 2026-05-05 02:54 | 37.65379 | 128.85911 | 30615 ft | 469 kts | 124° |
| 2026-05-05 02:54 | 37.63573 | 128.89368 | 30799 ft | 474 kts | 124° |
| 2026-05-05 02:54 | 37.61784 | 128.92876 | 31242 ft | 472 kts | 123° |
| 2026-05-05 02:54 | 37.60031 | 128.96410 | 31541 ft | 475 kts | 122° |
| 2026-05-05 02:55 | 37.58298 | 128.99971 | 31839 ft | 476 kts | 122° |
| 2026-05-05 02:55 | 37.56598 | 129.03499 | 32128 ft | 478 kts | 122° |
| 2026-05-05 02:55 | 37.54867 | 129.07095 | 32350 ft | 482 kts | 122° |
| 2026-05-05 02:55 | 37.53120 | 129.10724 | 32670 ft | 483 kts | 122° |
| 2026-05-05 02:56 | 37.51370 | 129.14355 | 32894 ft | 486 kts | 122° |
| 2026-05-05 02:56 | 37.49600 | 129.18020 | 33074 ft | 490 kts | 122° |
| 2026-05-05 02:56 | 37.47808 | 129.21725 | 33054 ft | 499 kts | 122° |
| 2026-05-05 02:57 | 37.44170 | 129.29234 | 33053 ft | 506 kts | 122° |
| 2026-05-05 02:57 | 37.41019 | 129.35732 | 33052 ft | 506 kts | 123° |
| 2026-05-05 02:58 | 37.37320 | 129.43348 | 33061 ft | 509 kts | 123° |
| 2026-05-05 02:58 | 37.33891 | 129.50389 | 33067 ft | 507 kts | 123° |
| 2026-05-05 02:59 | 37.30203 | 129.57945 | 33057 ft | 506 kts | 123° |
| 2026-05-05 02:59 | 37.26596 | 129.65320 | 33052 ft | 507 kts | 123° |
| 2026-05-05 03:00 | 37.22904 | 129.72849 | 33069 ft | 507 kts | 123° |
| 2026-05-05 03:00 | 37.19187 | 129.80411 | 33077 ft | 508 kts | 123° |
| 2026-05-05 03:01 | 37.15487 | 129.87925 | 33084 ft | 509 kts | 124° |
| 2026-05-05 03:01 | 37.11751 | 129.95492 | 33099 ft | 510 kts | 124° |
| 2026-05-05 03:02 | 37.08633 | 130.01795 | 33105 ft | 511 kts | 124° |
| 2026-05-05 03:02 | 37.04869 | 130.09389 | 33103 ft | 512 kts | 124° |
| 2026-05-05 03:03 | 37.01126 | 130.16920 | 33098 ft | 513 kts | 124° |
| 2026-05-05 03:03 | 36.97338 | 130.24525 | 33111 ft | 514 kts | 124° |
| 2026-05-05 03:04 | 36.93565 | 130.32088 | 33110 ft | 515 kts | 124° |
| 2026-05-05 03:04 | 36.89750 | 130.39713 | 33123 ft | 516 kts | 125° |
| 2026-05-05 03:05 | 36.85951 | 130.47290 | 33125 ft | 517 kts | 125° |
| 2026-05-05 03:05 | 36.82136 | 130.54883 | 33119 ft | 518 kts | 125° |
| 2026-05-05 03:06 | 36.78280 | 130.62538 | 33134 ft | 519 kts | 125° |
| 2026-05-05 03:06 | 36.74450 | 130.70125 | 33141 ft | 519 kts | 125° |
| 2026-05-05 03:07 | 36.70591 | 130.77755 | 33145 ft | 519 kts | 125° |
| 2026-05-05 03:07 | 36.66729 | 130.85373 | 33142 ft | 519 kts | 125° |
| 2026-05-05 03:08 | 36.62878 | 130.92953 | 33125 ft | 519 kts | 126° |
| 2026-05-05 03:08 | 36.59011 | 131.00548 | 33143 ft | 519 kts | 126° |
| 2026-05-05 03:09 | 36.55157 | 131.08099 | 33133 ft | 519 kts | 126° |